createdAt,value
2018-07-24T00:00:08.635Z,0
2018-07-24T00:01:09.312Z,0
2018-07-24T00:02:09.986Z,0
2018-07-24T00:03:10.664Z,0
2018-07-24T00:04:11.340Z,0
2018-07-24T00:05:12.018Z,0
2018-07-24T00:06:12.693Z,0
2018-07-24T00:07:13.368Z,0
2018-07-24T00:08:14.046Z,0
2018-07-24T00:09:14.721Z,0
2018-07-24T00:10:15.398Z,0
2018-07-24T00:11:16.074Z,0
2018-07-24T00:12:16.754Z,0
2018-07-24T00:13:17.427Z,0
2018-07-24T00:14:18.103Z,0
2018-07-24T00:15:18.780Z,0
2018-07-24T00:16:19.455Z,0
2018-07-24T00:17:20.132Z,0
2018-07-24T00:18:20.809Z,0
2018-07-24T00:19:21.483Z,0
2018-07-24T00:20:22.160Z,0
2018-07-24T00:21:22.836Z,0
2018-07-24T00:22:23.512Z,0
2018-07-24T00:23:24.189Z,0
2018-07-24T00:24:24.864Z,0
2018-07-24T00:25:25.541Z,0
2018-07-24T00:26:26.217Z,0
2018-07-24T00:27:26.891Z,0
2018-07-24T00:28:27.570Z,0
2018-07-24T00:29:28.245Z,0
2018-07-24T00:30:28.922Z,0
2018-07-24T00:31:29.598Z,0
2018-07-24T00:32:30.273Z,0
2018-07-24T00:33:30.995Z,0
2018-07-24T00:34:31.672Z,0
2018-07-24T00:35:32.347Z,0
2018-07-24T00:36:33.022Z,0
2018-07-24T00:37:33.697Z,0
2018-07-24T00:38:34.377Z,0
2018-07-24T00:39:35.055Z,0
2018-07-24T00:40:35.727Z,0
2018-07-24T00:41:36.403Z,0
2018-07-24T00:42:37.121Z,0
2018-07-24T00:43:37.798Z,0
2018-07-24T00:44:38.473Z,0
2018-07-24T00:45:39.149Z,0
2018-07-24T00:46:39.825Z,0
2018-07-24T00:47:40.619Z,0
2018-07-24T00:48:41.260Z,0
2018-07-24T00:49:41.936Z,0
2018-07-24T00:50:42.617Z,0
2018-07-24T00:51:43.332Z,0
2018-07-24T00:52:44.007Z,0
2018-07-24T00:53:44.684Z,0
2018-07-24T00:54:45.360Z,0
2018-07-24T00:55:46.081Z,0
2018-07-24T00:56:46.756Z,0
2018-07-24T00:57:47.431Z,0
2018-07-24T00:58:48.113Z,0
2018-07-24T00:59:48.785Z,0
2018-07-24T01:00:49.465Z,0
2018-07-24T01:01:50.137Z,0
2018-07-24T01:02:50.812Z,0
2018-07-24T01:03:51.489Z,0
2018-07-24T01:04:52.165Z,0
2018-07-24T01:05:52.841Z,0
2018-07-24T01:06:53.517Z,0
2018-07-24T01:07:54.199Z,0
2018-07-24T01:08:54.914Z,0
2018-07-24T01:09:55.634Z,0
2018-07-24T01:10:56.309Z,0
2018-07-24T01:11:56.984Z,0
2018-07-24T01:12:57.661Z,0
2018-07-24T01:13:58.336Z,0
2018-07-24T01:14:59.012Z,0
2018-07-24T01:15:59.732Z,0
2018-07-24T01:17:00.452Z,0
2018-07-24T01:18:01.129Z,0
2018-07-24T01:19:01.803Z,0
2018-07-24T01:20:02.480Z,0
2018-07-24T01:21:03.156Z,0
2018-07-24T01:22:03.831Z,0
2018-07-24T01:23:04.511Z,0
2018-07-24T01:24:05.184Z,0
2018-07-24T01:25:05.859Z,0
2018-07-24T01:26:06.536Z,0
2018-07-24T01:27:07.252Z,0
2018-07-24T01:28:07.972Z,0
2018-07-24T01:29:08.693Z,0
2018-07-24T01:30:09.367Z,0
2018-07-24T01:31:10.044Z,0
2018-07-24T01:32:10.722Z,0
2018-07-24T01:33:11.395Z,0
2018-07-24T01:34:12.071Z,0
2018-07-24T01:35:12.753Z,0
2018-07-24T01:36:13.426Z,0
2018-07-24T01:37:14.098Z,0
2018-07-24T01:38:14.773Z,0
2018-07-24T01:39:15.449Z,0
2018-07-24T01:40:16.125Z,0
2018-07-24T01:41:16.800Z,0
2018-07-24T01:42:17.476Z,0
2018-07-24T01:43:18.151Z,0
2018-07-24T01:44:18.872Z,0
2018-07-24T01:45:19.546Z,0
2018-07-24T01:46:20.221Z,0
2018-07-24T01:47:20.899Z,0
2018-07-24T01:48:21.573Z,0
2018-07-24T01:49:22.249Z,0
2018-07-24T01:50:22.924Z,0
2018-07-24T01:51:23.599Z,0
2018-07-24T01:52:24.275Z,0
2018-07-24T01:53:24.950Z,0
2018-07-24T01:54:25.627Z,0
2018-07-24T01:55:26.301Z,0
2018-07-24T01:56:27.022Z,0
2018-07-24T01:57:27.699Z,0
2018-07-24T01:58:28.375Z,0
2018-07-24T01:59:29.051Z,0
2018-07-24T02:00:29.729Z,0
2018-07-24T02:01:30.448Z,0
2018-07-24T02:02:31.124Z,0
2018-07-24T02:03:31.799Z,0
2018-07-24T02:04:32.473Z,0
2018-07-24T02:05:33.147Z,0
2018-07-24T02:06:33.871Z,0
2018-07-24T02:07:34.588Z,0
2018-07-24T02:08:35.264Z,0
2018-07-24T02:09:35.943Z,0
2018-07-24T02:10:36.613Z,0
2018-07-24T02:11:37.291Z,0
2018-07-24T02:12:37.965Z,0
2018-07-24T02:13:38.643Z,0
2018-07-24T02:14:39.317Z,0
2018-07-24T02:15:39.994Z,0
2018-07-24T02:16:40.670Z,0
2018-07-24T02:17:41.345Z,0
2018-07-24T02:18:42.026Z,0
2018-07-24T02:19:42.696Z,0
2018-07-24T02:20:43.371Z,0
2018-07-24T02:21:44.048Z,0
2018-07-24T02:22:44.722Z,0
2018-07-24T02:23:45.398Z,0
2018-07-24T02:24:46.073Z,0
2018-07-24T02:25:46.793Z,0
2018-07-24T02:26:47.471Z,0
2018-07-24T02:27:48.189Z,0
2018-07-24T02:28:48.866Z,0
2018-07-24T02:29:49.542Z,0
2018-07-24T02:30:50.248Z,0
2018-07-24T02:31:50.947Z,0
2018-07-24T02:32:51.647Z,0
2018-07-24T02:33:52.322Z,0
2018-07-24T02:34:53.005Z,0
2018-07-24T02:35:53.716Z,0
2018-07-24T02:36:54.392Z,0
2018-07-24T02:37:55.067Z,0
2018-07-24T02:38:55.742Z,0
2018-07-24T02:39:56.418Z,0
2018-07-24T02:40:57.099Z,0
2018-07-24T02:41:57.815Z,0
2018-07-24T02:42:58.584Z,0
2018-07-24T02:43:59.265Z,0
2018-07-24T02:44:59.980Z,0
2018-07-24T02:46:00.655Z,0
2018-07-24T02:47:01.331Z,0
2018-07-24T02:48:02.055Z,0
2018-07-24T02:49:02.731Z,0
2018-07-24T02:50:03.401Z,0
2018-07-24T02:51:04.122Z,0
2018-07-24T02:52:04.803Z,4
2018-07-24T02:53:05.473Z,4
2018-07-24T02:54:06.149Z,0
2018-07-24T02:55:06.825Z,0
2018-07-24T02:56:07.502Z,4
2018-07-24T02:57:08.176Z,4
2018-07-24T02:58:08.945Z,4
2018-07-24T02:59:09.620Z,4
2018-07-24T03:00:10.297Z,4
2018-07-24T03:01:10.972Z,8
2018-07-24T03:02:11.645Z,4
2018-07-24T03:03:12.322Z,8
2018-07-24T03:04:12.997Z,8
2018-07-24T03:05:13.675Z,12
2018-07-24T03:06:14.350Z,12
2018-07-24T03:07:15.026Z,12
2018-07-24T03:08:15.703Z,16
2018-07-24T03:09:16.380Z,20
2018-07-24T03:10:17.056Z,20
2018-07-24T03:11:17.732Z,24
2018-07-24T03:12:18.409Z,24
2018-07-24T03:13:19.088Z,28
2018-07-24T03:14:19.762Z,32
2018-07-24T03:15:20.436Z,36
2018-07-24T03:16:21.189Z,40
2018-07-24T03:17:21.793Z,44
2018-07-24T03:18:22.512Z,48
2018-07-24T03:19:23.234Z,56
2018-07-24T03:20:23.913Z,60
2018-07-24T03:21:24.589Z,68
2018-07-24T03:22:25.265Z,72
2018-07-24T03:23:25.941Z,80
2018-07-24T03:24:26.617Z,88
2018-07-24T03:25:27.294Z,96
2018-07-24T03:26:27.969Z,104
2018-07-24T03:27:28.647Z,116
2018-07-24T03:28:29.324Z,124
2018-07-24T03:29:30.002Z,132
2018-07-24T03:30:30.680Z,144
2018-07-24T03:31:31.357Z,156
2018-07-24T03:32:32.034Z,164
2018-07-24T03:33:32.712Z,180
2018-07-24T03:34:33.390Z,192
2018-07-24T03:35:34.066Z,208
2018-07-24T03:36:34.788Z,220
2018-07-24T03:37:35.470Z,236
2018-07-24T03:38:36.188Z,252
2018-07-24T03:39:36.879Z,268
2018-07-24T03:40:37.583Z,284
2018-07-24T03:41:38.301Z,304
2018-07-24T03:42:38.979Z,320
2018-07-24T03:43:39.657Z,340
2018-07-24T03:44:40.337Z,360
2018-07-24T03:45:41.015Z,380
2018-07-24T03:46:41.695Z,404
2018-07-24T03:47:42.371Z,428
2018-07-24T03:48:43.051Z,448
2018-07-24T03:49:43.730Z,472
2018-07-24T03:50:44.409Z,496
2018-07-24T03:51:45.089Z,524
2018-07-24T03:52:45.766Z,548
2018-07-24T03:53:46.443Z,572
2018-07-24T03:54:47.122Z,600
2018-07-24T03:55:47.800Z,624
2018-07-24T03:56:48.482Z,652
2018-07-24T03:57:49.214Z,680
2018-07-24T03:58:49.924Z,708
2018-07-24T03:59:50.601Z,732
2018-07-24T04:00:51.325Z,764
2018-07-24T04:01:52.009Z,792
2018-07-24T04:02:52.685Z,820
2018-07-24T04:03:53.363Z,852
2018-07-24T04:04:54.041Z,880
2018-07-24T04:05:54.720Z,912
2018-07-24T04:06:55.398Z,936
2018-07-24T04:07:56.075Z,968
2018-07-24T04:08:56.753Z,1000
2018-07-24T04:09:57.433Z,1028
2018-07-24T04:10:58.113Z,1052
2018-07-24T04:11:58.796Z,1084
2018-07-24T04:12:59.517Z,1112
2018-07-24T04:14:00.197Z,1140
2018-07-24T04:16:22.440Z,1212
2018-07-24T04:17:23.105Z,1244
2018-07-24T04:18:23.773Z,1276
2018-07-24T04:19:42.138Z,1316
2018-07-24T04:20:42.807Z,1344
2018-07-24T04:21:43.475Z,1380
2018-07-24T04:22:44.144Z,1412
2018-07-24T04:23:44.812Z,1444
2018-07-24T04:24:45.524Z,1476
2018-07-24T04:27:01.694Z,1548
2018-07-24T04:28:02.365Z,1576
2018-07-24T04:29:03.156Z,1604
2018-07-24T04:30:03.782Z,1632
2018-07-24T04:31:04.465Z,1664
2018-07-24T04:32:05.117Z,1696
2018-07-24T04:33:05.785Z,1724
2018-07-24T04:34:06.468Z,1760
2018-07-24T04:35:07.190Z,1788
2018-07-24T04:36:07.916Z,1816
2018-07-24T04:37:08.596Z,1848
2018-07-24T04:38:09.279Z,1880
2018-07-24T04:39:09.971Z,1908
2018-07-24T04:40:10.676Z,1940
2018-07-24T04:41:11.319Z,1964
2018-07-24T04:42:12.042Z,1996
2018-07-24T04:43:12.727Z,2024
2018-07-24T04:44:13.402Z,2052
2018-07-24T04:45:14.126Z,2080
2018-07-24T04:46:14.809Z,2112
2018-07-24T04:47:15.532Z,2140
2018-07-24T04:48:16.257Z,2176
2018-07-24T04:49:16.981Z,2204
2018-07-24T04:50:17.706Z,2236
2018-07-24T04:51:18.385Z,2268
2018-07-24T04:52:19.066Z,2296
2018-07-24T04:53:19.748Z,2324
2018-07-24T04:54:20.426Z,2352
2018-07-24T04:55:21.106Z,2380
2018-07-24T04:56:21.787Z,2412
2018-07-24T04:57:22.471Z,2444
2018-07-24T04:58:23.144Z,2472
2018-07-24T04:59:23.825Z,2504
2018-07-24T05:00:24.552Z,2524
2018-07-24T05:01:25.277Z,2544
2018-07-24T05:02:25.999Z,2568
2018-07-24T05:03:26.679Z,2588
2018-07-24T05:04:27.359Z,2608
2018-07-24T05:05:28.041Z,2624
2018-07-24T05:06:28.725Z,2648
2018-07-24T05:07:29.399Z,2668
2018-07-24T05:08:30.080Z,2692
2018-07-24T05:09:30.797Z,2720
2018-07-24T05:10:31.476Z,2752
2018-07-24T05:11:32.158Z,2784
2018-07-24T05:12:32.840Z,2812
2018-07-24T05:13:33.565Z,2840
2018-07-24T05:14:34.289Z,2868
2018-07-24T05:15:35.013Z,2900
2018-07-24T05:16:35.725Z,2928
2018-07-24T05:17:36.370Z,2964
2018-07-24T05:18:37.052Z,3000
2018-07-24T05:19:37.731Z,3032
2018-07-24T05:20:38.411Z,3068
2018-07-24T05:21:39.137Z,3092
2018-07-24T05:22:39.863Z,3132
2018-07-24T05:23:40.552Z,3160
2018-07-24T05:24:41.234Z,3192
2018-07-24T05:25:41.988Z,3224
2018-07-24T05:26:42.662Z,3256
2018-07-24T05:27:43.344Z,3284
2018-07-24T05:28:44.024Z,3312
2018-07-24T05:29:44.704Z,3340
2018-07-24T05:30:45.384Z,3364
2018-07-24T05:31:46.064Z,3388
2018-07-24T05:32:46.745Z,3412
2018-07-24T05:33:47.470Z,3440
2018-07-24T05:34:48.150Z,3468
2018-07-24T05:35:48.830Z,3496
2018-07-24T05:36:49.513Z,3532
2018-07-24T05:37:50.193Z,3572
2018-07-24T05:38:50.919Z,3604
2018-07-24T05:39:51.551Z,3636
2018-07-24T05:40:52.233Z,3668
2018-07-24T05:41:52.915Z,3700
2018-07-24T05:42:53.640Z,3724
2018-07-24T05:43:54.371Z,3748
2018-07-24T05:44:55.049Z,3768
2018-07-24T05:45:55.730Z,3788
2018-07-24T05:46:56.414Z,3820
2018-07-24T05:47:57.095Z,3856
2018-07-24T05:48:57.781Z,3900
2018-07-24T05:49:58.509Z,3932
2018-07-24T05:50:59.143Z,3956
2018-07-24T05:51:59.823Z,3980
2018-07-24T05:53:00.506Z,4004
2018-07-24T05:54:01.189Z,4028
2018-07-24T05:55:01.918Z,4056
2018-07-24T05:56:02.552Z,4080
2018-07-24T05:57:03.234Z,4104
2018-07-24T05:58:03.914Z,4132
2018-07-24T05:59:04.597Z,4160
2018-07-24T06:00:05.324Z,4180
2018-07-24T06:01:06.004Z,4196
2018-07-24T06:02:06.687Z,4212
2018-07-24T06:03:07.369Z,4220
2018-07-24T06:04:08.049Z,4232
2018-07-24T06:05:08.732Z,4244
2018-07-24T06:06:09.417Z,4264
2018-07-24T06:07:10.102Z,4284
2018-07-24T06:08:10.822Z,4304
2018-07-24T06:09:11.549Z,4336
2018-07-24T06:10:12.229Z,4360
2018-07-24T06:11:12.911Z,4388
2018-07-24T06:12:13.593Z,4420
2018-07-24T06:13:14.343Z,4452
2018-07-24T06:14:14.958Z,4496
2018-07-24T06:15:15.639Z,4536
2018-07-24T06:16:16.320Z,4584
2018-07-24T06:17:17.025Z,4644
2018-07-24T06:18:17.685Z,4704
2018-07-24T06:19:18.367Z,4768
2018-07-24T06:20:19.094Z,4824
2018-07-24T06:21:19.820Z,4896
2018-07-24T06:22:20.501Z,4996
2018-07-24T06:23:21.184Z,5024
2018-07-24T06:24:21.868Z,5072
2018-07-24T06:25:22.549Z,5144
2018-07-24T06:26:23.230Z,5236
2018-07-24T06:27:23.915Z,5352
2018-07-24T06:28:24.596Z,5504
2018-07-24T06:29:25.325Z,18368
2018-07-24T06:30:26.009Z,53664
2018-07-24T06:31:26.691Z,82368
2018-07-24T06:32:27.373Z,83136
2018-07-24T06:33:28.107Z,81344
2018-07-24T06:34:28.794Z,82464
2018-07-24T06:35:29.478Z,84704
2018-07-24T06:36:30.167Z,72480
2018-07-24T06:37:30.891Z,73760
2018-07-24T06:38:31.576Z,79392
2018-07-24T06:39:32.327Z,81024
2018-07-24T06:40:32.997Z,79200
2018-07-24T06:41:33.684Z,80640
2018-07-24T06:42:34.371Z,80352
2018-07-24T06:43:35.058Z,72864
2018-07-24T06:44:35.775Z,72320
2018-07-24T06:45:36.434Z,76000
2018-07-24T06:46:37.116Z,75808
2018-07-24T06:47:37.828Z,78048
2018-07-24T06:48:38.503Z,81952
2018-07-24T06:49:39.178Z,77856
2018-07-24T06:50:39.900Z,80256
2018-07-24T06:51:40.752Z,84800
2018-07-24T06:52:41.303Z,79232
2018-07-24T06:53:42.182Z,80128
2018-07-24T06:55:58.787Z,78752
2018-07-24T06:56:59.503Z,84352
2018-07-24T06:58:00.181Z,84896
2018-07-24T06:59:00.861Z,84928
2018-07-24T07:00:01.542Z,80672
2018-07-24T07:02:17.857Z,76288
2018-07-24T07:03:18.478Z,73568
2018-07-24T07:04:19.417Z,76256
2018-07-24T07:05:20.994Z,78720
2018-07-24T07:07:37.853Z,75008
2018-07-24T07:08:38.516Z,72608
2018-07-24T07:09:39.196Z,74592
2018-07-24T07:10:39.918Z,73664
2018-07-24T07:11:40.597Z,75520
2018-07-24T07:12:41.277Z,80128
2018-07-24T07:13:41.959Z,78336
2018-07-24T07:14:42.682Z,76288
2018-07-24T07:15:43.361Z,72928
2018-07-24T07:16:44.056Z,66304
2018-07-24T07:17:44.721Z,68352
2018-07-24T07:18:45.401Z,73440
2018-07-24T07:19:46.127Z,76864
2018-07-24T07:20:46.810Z,77248
2018-07-24T07:21:47.491Z,78240
2018-07-24T07:22:48.173Z,76608
2018-07-24T07:23:48.854Z,74944
2018-07-24T07:24:49.536Z,74912
2018-07-24T07:25:50.216Z,78880
2018-07-24T07:26:50.898Z,79616
2018-07-24T07:27:51.579Z,73088
2018-07-24T07:28:52.260Z,69056
2018-07-24T07:29:52.940Z,69888
2018-07-24T07:30:53.621Z,72992
2018-07-24T07:31:54.303Z,71648
2018-07-24T07:32:54.987Z,70336
2018-07-24T07:33:55.712Z,72800
2018-07-24T07:34:56.394Z,74848
2018-07-24T07:35:57.075Z,75040
2018-07-24T07:36:57.756Z,73216
2018-07-24T07:37:58.480Z,72576
2018-07-24T07:38:59.205Z,71840
2018-07-24T07:39:59.890Z,70688
2018-07-24T07:41:00.566Z,70944
2018-07-24T07:42:01.248Z,73792
2018-07-24T07:43:01.978Z,72000
2018-07-24T07:44:02.762Z,68128
2018-07-24T07:45:03.382Z,68000
2018-07-24T07:46:04.061Z,72032
2018-07-24T07:47:04.746Z,72000
2018-07-24T07:48:05.469Z,69472
2018-07-24T07:49:06.150Z,66560
2018-07-24T07:50:06.831Z,65696
2018-07-24T07:51:07.551Z,67232
2018-07-24T07:52:08.239Z,68480
2018-07-24T07:53:08.916Z,69056
2018-07-24T07:54:09.643Z,68064
2018-07-24T07:55:10.328Z,66336
2018-07-24T07:56:11.052Z,66688
2018-07-24T07:57:11.813Z,64448
2018-07-24T07:58:12.498Z,62368
2018-07-24T07:59:13.183Z,58432
2018-07-24T08:00:13.861Z,53120
2018-07-24T08:01:14.542Z,55808
2018-07-24T08:02:15.223Z,51776
2018-07-24T08:03:15.901Z,45856
2018-07-24T08:04:16.596Z,43168
2018-07-24T08:05:17.295Z,43232
2018-07-24T08:06:17.974Z,45792
2018-07-24T08:07:18.654Z,48736
2018-07-24T08:08:19.340Z,47712
2018-07-24T08:09:20.014Z,36544
2018-07-24T08:10:20.694Z,20800
2018-07-24T08:11:21.374Z,12612
2018-07-24T08:12:22.101Z,11332
2018-07-24T08:13:22.738Z,10664
2018-07-24T08:14:23.463Z,10160
2018-07-24T08:15:24.144Z,9748
2018-07-24T08:16:24.877Z,9348
2018-07-24T08:17:25.591Z,9020
2018-07-24T08:18:26.269Z,8696
2018-07-24T08:19:26.949Z,8400
2018-07-24T08:20:27.630Z,8160
2018-07-24T08:21:28.353Z,7916
2018-07-24T08:22:29.037Z,7724
2018-07-24T08:23:29.710Z,7532
2018-07-24T08:24:30.388Z,7380
2018-07-24T08:25:31.069Z,7248
2018-07-24T08:26:31.745Z,7136
2018-07-24T08:27:32.424Z,7036
2018-07-24T08:28:33.103Z,6964
2018-07-24T08:29:33.782Z,6892
2018-07-24T08:30:34.464Z,6820
2018-07-24T08:31:35.144Z,6752
2018-07-24T08:32:35.864Z,6712
2018-07-24T08:33:36.567Z,6668
2018-07-24T08:34:37.226Z,6624
2018-07-24T08:35:37.905Z,6572
2018-07-24T08:36:38.638Z,6516
2018-07-24T08:37:39.354Z,6460
2018-07-24T08:38:40.038Z,6396
2018-07-24T08:39:40.712Z,6352
2018-07-24T08:40:41.436Z,6320
2018-07-24T08:41:42.115Z,6268
2018-07-24T08:42:42.792Z,6216
2018-07-24T08:43:43.470Z,6168
2018-07-24T08:44:44.164Z,6128
2018-07-24T08:45:44.828Z,6084
2018-07-24T08:46:45.505Z,6052
2018-07-24T08:47:46.183Z,6016
2018-07-24T08:48:46.892Z,5984
2018-07-24T08:49:47.584Z,5972
2018-07-24T08:50:48.292Z,5968
2018-07-24T08:51:48.986Z,5956
2018-07-24T08:52:49.745Z,6268
2018-07-24T08:53:50.607Z,6420
2018-07-24T08:54:51.186Z,6416
2018-07-24T08:55:51.737Z,6496
2018-07-24T08:56:52.415Z,6496
2018-07-24T08:57:53.092Z,6408
2018-07-24T08:58:53.772Z,6240
2018-07-24T08:59:54.497Z,6108
2018-07-24T09:00:55.217Z,6060
2018-07-24T09:01:55.941Z,5992
2018-07-24T09:02:56.700Z,5948
2018-07-24T09:03:57.392Z,5884
2018-07-24T09:04:58.070Z,5876
2018-07-24T09:05:58.798Z,6320
2018-07-24T09:06:59.516Z,7868
2018-07-24T09:08:00.197Z,12196
2018-07-24T09:09:00.880Z,14648
2018-07-24T09:10:01.565Z,12656
2018-07-24T09:11:02.284Z,7948
2018-07-24T09:12:02.963Z,5644
2018-07-24T09:13:03.644Z,5376
2018-07-24T09:14:04.320Z,5292
2018-07-24T09:15:04.998Z,5220
2018-07-24T09:16:05.677Z,5180
2018-07-24T09:17:06.354Z,5140
2018-07-24T09:18:07.034Z,5108
2018-07-24T09:19:07.711Z,5076
2018-07-24T09:20:08.398Z,5044
2018-07-24T09:21:09.068Z,4992
2018-07-24T09:22:09.790Z,4924
2018-07-24T09:23:10.514Z,4884
2018-07-24T09:24:11.194Z,4904
2018-07-24T09:25:11.875Z,4872
2018-07-24T09:26:12.554Z,4812
2018-07-24T09:27:13.236Z,4776
2018-07-24T09:28:13.915Z,4744
2018-07-24T09:29:14.595Z,4720
2018-07-24T09:30:15.272Z,4676
2018-07-24T09:31:15.999Z,4632
2018-07-24T09:32:16.682Z,4604
2018-07-24T09:33:17.385Z,4584
2018-07-24T09:34:18.091Z,4560
2018-07-24T09:35:18.801Z,4540
2018-07-24T09:36:19.480Z,4524
2018-07-24T09:37:20.203Z,4508
2018-07-24T09:38:20.883Z,4504
2018-07-24T09:39:21.558Z,4488
2018-07-24T09:40:22.324Z,4472
2018-07-24T09:41:22.960Z,4456
2018-07-24T09:42:23.638Z,4432
2018-07-24T09:43:24.412Z,4420
2018-07-24T09:44:25.099Z,4404
2018-07-24T09:45:25.814Z,4392
2018-07-24T09:46:26.492Z,4380
2018-07-24T09:47:27.171Z,4380
2018-07-24T09:48:27.899Z,4372
2018-07-24T09:49:28.621Z,4368
2018-07-24T09:50:29.327Z,4372
2018-07-24T09:51:30.023Z,4368
2018-07-24T09:52:30.745Z,4356
2018-07-24T09:53:31.473Z,4340
2018-07-24T09:54:32.151Z,4332
2018-07-24T09:55:32.830Z,4320
2018-07-24T09:56:33.510Z,4324
2018-07-24T09:57:34.190Z,4320
2018-07-24T09:58:34.870Z,4324
2018-07-24T09:59:35.550Z,4324
2018-07-24T10:00:36.227Z,4324
2018-07-24T10:01:36.950Z,4328
2018-07-24T10:02:37.658Z,4332
2018-07-24T10:03:38.348Z,4336
2018-07-24T10:04:39.026Z,4348
2018-07-24T10:05:39.704Z,4336
2018-07-24T10:06:40.380Z,4316
2018-07-24T10:07:41.106Z,4292
2018-07-24T10:08:41.829Z,4280
2018-07-24T10:09:42.508Z,4280
2018-07-24T10:10:43.185Z,4272
2018-07-24T10:11:43.867Z,4228
2018-07-24T10:12:44.667Z,4208
2018-07-24T10:13:45.265Z,4180
2018-07-24T10:14:45.943Z,4220
2018-07-24T10:15:46.622Z,4220
2018-07-24T10:16:47.362Z,4224
2018-07-24T10:17:47.978Z,4232
2018-07-24T10:18:48.663Z,4180
2018-07-24T10:19:49.379Z,4224
2018-07-24T10:20:50.105Z,4224
2018-07-24T10:21:50.829Z,4208
2018-07-24T10:22:51.507Z,4200
2018-07-24T10:23:52.185Z,4200
2018-07-24T10:24:52.861Z,4200
2018-07-24T10:25:53.539Z,4204
2018-07-24T10:26:54.217Z,4196
2018-07-24T10:27:54.940Z,4188
2018-07-24T10:28:55.617Z,4180
2018-07-24T10:29:56.340Z,4168
2018-07-24T10:30:57.019Z,4144
2018-07-24T10:31:57.697Z,4132
2018-07-24T10:32:58.421Z,4088
2018-07-24T10:33:59.100Z,4076
2018-07-24T10:35:15.390Z,4048
2018-07-24T10:36:16.082Z,4052
2018-07-24T10:37:16.803Z,4048
2018-07-24T10:38:17.509Z,4016
2018-07-24T10:39:18.202Z,4008
2018-07-24T10:40:18.936Z,4012
2018-07-24T10:41:19.629Z,4028
2018-07-24T10:42:20.318Z,4044
2018-07-24T10:43:21.020Z,4056
2018-07-24T10:44:21.748Z,4056
2018-07-24T10:45:22.482Z,4076
2018-07-24T10:46:23.172Z,4076
2018-07-24T10:47:23.864Z,4076
2018-07-24T10:48:24.553Z,4072
2018-07-24T10:49:25.297Z,4060
2018-07-24T10:50:25.936Z,4024
2018-07-24T10:51:26.627Z,3996
2018-07-24T10:52:27.361Z,3984
2018-07-24T10:53:28.072Z,3972
2018-07-24T10:54:28.742Z,3984
2018-07-24T10:55:29.433Z,3980
2018-07-24T10:56:30.122Z,3964
2018-07-24T10:57:30.811Z,3940
2018-07-24T10:58:31.501Z,3944
2018-07-24T10:59:32.193Z,3932
2018-07-24T11:00:32.930Z,3936
2018-07-24T11:01:33.661Z,3932
2018-07-24T11:02:34.350Z,3936
2018-07-24T11:03:35.085Z,3924
2018-07-24T11:04:35.774Z,3928
2018-07-24T11:05:36.463Z,3932
2018-07-24T11:06:37.155Z,3908
2018-07-24T11:07:37.879Z,3908
2018-07-24T11:08:38.613Z,3888
2018-07-24T11:09:39.347Z,3880
2018-07-24T11:10:40.078Z,3872
2018-07-24T11:11:40.768Z,3632
2018-07-24T11:12:41.456Z,3616
2018-07-24T11:13:42.144Z,3596
2018-07-24T11:14:42.833Z,3584
2018-07-24T11:15:43.568Z,3600
2018-07-24T11:16:44.302Z,3600
2018-07-24T11:17:44.990Z,3596
2018-07-24T11:18:45.698Z,3588
2018-07-24T11:19:46.410Z,3580
2018-07-24T11:20:47.100Z,3572
2018-07-24T11:21:47.822Z,3564
2018-07-24T11:22:48.762Z,3564
2018-07-24T11:23:49.232Z,3560
2018-07-24T11:24:49.907Z,3572
2018-07-24T11:25:50.639Z,3564
2018-07-24T11:26:51.363Z,3556
2018-07-24T11:27:52.058Z,3556
2018-07-24T11:28:52.746Z,3544
2018-07-24T11:29:53.434Z,3544
2018-07-24T11:30:54.124Z,3540
2018-07-24T11:31:54.812Z,3544
2018-07-24T11:32:55.506Z,3552
2018-07-24T11:33:56.193Z,3568
2018-07-24T11:34:56.878Z,3576
2018-07-24T11:35:57.764Z,3592
2018-07-24T11:36:58.257Z,3600
2018-07-24T11:37:58.945Z,3616
2018-07-24T11:38:59.633Z,3628
2018-07-24T11:40:00.366Z,3628
2018-07-24T11:41:01.088Z,3620
2018-07-24T11:42:01.743Z,3632
2018-07-24T11:43:02.448Z,3624
2018-07-24T11:44:03.176Z,3632
2018-07-24T11:45:03.855Z,3660
2018-07-24T11:46:04.544Z,3688
2018-07-24T11:47:05.278Z,3704
2018-07-24T11:48:06.012Z,3716
2018-07-24T11:49:06.746Z,3732
2018-07-24T11:50:07.434Z,3748
2018-07-24T11:51:08.123Z,3764
2018-07-24T11:52:08.857Z,3776
2018-07-24T11:53:09.544Z,3788
2018-07-24T11:54:10.232Z,3808
2018-07-24T11:55:10.922Z,3808
2018-07-24T11:56:11.610Z,4036
2018-07-24T11:57:12.299Z,4076
2018-07-24T11:58:12.988Z,4084
2018-07-24T11:59:13.675Z,4096
2018-07-24T12:00:14.364Z,4100
2018-07-24T12:01:15.053Z,4100
2018-07-24T12:02:15.741Z,4108
2018-07-24T12:03:16.454Z,4084
2018-07-24T12:04:17.168Z,4104
2018-07-24T12:05:17.852Z,4100
2018-07-24T12:06:18.584Z,4104
2018-07-24T12:07:19.277Z,4100
2018-07-24T12:08:20.008Z,4076
2018-07-24T12:09:20.695Z,4084
2018-07-24T12:10:21.426Z,4052
2018-07-24T12:11:22.116Z,4048
2018-07-24T12:12:22.805Z,4056
2018-07-24T12:13:23.493Z,4040
2018-07-24T12:14:24.183Z,4052
2018-07-24T12:15:24.870Z,4036
2018-07-24T12:16:25.602Z,4008
2018-07-24T12:17:26.291Z,3976
2018-07-24T12:18:27.004Z,3988
2018-07-24T12:19:27.758Z,3992
2018-07-24T12:20:28.436Z,4008
2018-07-24T12:21:29.124Z,4012
2018-07-24T12:22:29.812Z,4004
2018-07-24T12:23:30.500Z,4016
2018-07-24T12:24:31.188Z,4040
2018-07-24T12:25:31.922Z,4052
2018-07-24T12:26:32.611Z,4084
2018-07-24T12:27:33.300Z,4096
2018-07-24T12:28:33.990Z,4096
2018-07-24T12:29:34.678Z,4128
2018-07-24T12:30:35.414Z,4124
2018-07-24T12:31:36.114Z,4120
2018-07-24T12:32:36.833Z,4148
2018-07-24T12:33:37.522Z,4140
2018-07-24T12:34:38.254Z,4136
2018-07-24T12:35:38.943Z,4124
2018-07-24T12:36:39.633Z,4120
2018-07-24T12:37:40.320Z,4132
2018-07-24T12:38:41.010Z,4120
2018-07-24T12:39:41.698Z,3888
2018-07-24T12:40:42.386Z,3900
2018-07-24T12:41:43.075Z,3916
2018-07-24T12:42:43.765Z,3932
2018-07-24T12:43:44.579Z,3936
2018-07-24T12:44:45.185Z,3952
2018-07-24T12:45:45.918Z,3952
2018-07-24T12:46:46.608Z,3960
2018-07-24T12:47:47.301Z,3972
2018-07-24T12:48:47.986Z,3988
2018-07-24T12:49:48.679Z,4004
2018-07-24T12:50:49.409Z,4028
2018-07-24T12:51:50.142Z,4048
2018-07-24T12:52:50.834Z,4052
2018-07-24T12:53:51.521Z,4056
2018-07-24T12:54:52.210Z,4048
2018-07-24T12:55:52.898Z,4052
2018-07-24T12:56:53.587Z,4052
2018-07-24T12:57:54.341Z,4052
2018-07-24T12:58:55.007Z,4068
2018-07-24T12:59:55.696Z,4072
2018-07-24T13:00:56.383Z,4064
2018-07-24T13:01:57.072Z,4068
2018-07-24T13:02:57.760Z,4080
2018-07-24T13:03:58.476Z,4084
2018-07-24T13:04:59.137Z,4084
2018-07-24T13:05:59.825Z,4088
2018-07-24T13:07:00.513Z,4088
2018-07-24T13:08:01.203Z,4096
2018-07-24T13:09:01.891Z,4096
2018-07-24T13:10:02.599Z,4116
2018-07-24T13:11:03.340Z,4128
2018-07-24T13:12:04.000Z,4144
2018-07-24T13:13:04.686Z,4148
2018-07-24T13:14:05.375Z,4148
2018-07-24T13:15:06.064Z,4152
2018-07-24T13:16:06.751Z,4156
2018-07-24T13:17:07.488Z,4168
2018-07-24T13:18:08.172Z,4164
2018-07-24T13:19:08.860Z,4172
2018-07-24T13:20:09.549Z,4172
2018-07-24T13:21:10.236Z,4176
2018-07-24T13:22:10.924Z,4160
2018-07-24T13:23:11.658Z,4208
2018-07-24T13:24:12.346Z,4168
2018-07-24T13:25:13.034Z,4188
2018-07-24T13:26:13.723Z,4208
2018-07-24T13:27:14.457Z,4220
2018-07-24T13:28:15.145Z,4232
2018-07-24T13:29:15.832Z,4232
2018-07-24T13:30:16.520Z,4252
2018-07-24T13:31:17.207Z,4260
2018-07-24T13:32:17.895Z,4268
2018-07-24T13:33:18.583Z,4268
2018-07-24T13:34:19.272Z,4284
2018-07-24T13:35:20.007Z,4272
2018-07-24T13:36:20.681Z,4280
2018-07-24T13:37:21.382Z,4296
2018-07-24T13:38:22.071Z,4320
2018-07-24T13:39:22.770Z,4336
2018-07-24T13:40:23.494Z,4336
2018-07-24T13:41:24.180Z,4348
2018-07-24T13:42:24.870Z,4348
2018-07-24T13:43:25.560Z,4344
2018-07-24T13:44:26.248Z,4356
2018-07-24T13:45:26.979Z,4344
2018-07-24T13:46:27.668Z,4352
2018-07-24T13:47:28.356Z,4340
2018-07-24T13:48:29.043Z,4348
2018-07-24T13:49:29.734Z,4364
2018-07-24T13:50:30.464Z,4364
2018-07-24T13:51:31.152Z,4380
2018-07-24T13:52:31.885Z,4392